sensor_id;sensor_type;location;lat;lon;timestamp;P1;durP1;ratioP1;P2;durP2;ratioP2
37955;SDS011;23776;51.592;7.180;2023-04-06T00:01:37;28.92;;;12.60;;
37955;SDS011;23776;51.592;7.180;2023-04-06T00:04:03;31.90;;;12.75;;
37955;SDS011;23776;51.592;7.180;2023-04-06T00:06:29;31.33;;;12.68;;
37955;SDS011;23776;51.592;7.180;2023-04-06T00:08:55;30.95;;;13.15;;
37955;SDS011;23776;51.592;7.180;2023-04-06T00:11:21;29.05;;;13.32;;
37955;SDS011;23776;51.592;7.180;2023-04-06T00:13:47;31.10;;;14.32;;
37955;SDS011;23776;51.592;7.180;2023-04-06T00:16:13;31.40;;;13.68;;
37955;SDS011;23776;51.592;7.180;2023-04-06T00:18:39;28.55;;;13.25;;
37955;SDS011;23776;51.592;7.180;2023-04-06T00:21:05;24.83;;;12.27;;
37955;SDS011;23776;51.592;7.180;2023-04-06T00:23:31;36.15;;;14.32;;
37955;SDS011;23776;51.592;7.180;2023-04-06T00:25:57;30.33;;;12.95;;
37955;SDS011;23776;51.592;7.180;2023-04-06T00:28:23;27.17;;;12.40;;
37955;SDS011;23776;51.592;7.180;2023-04-06T00:30:54;30.17;;;12.85;;
37955;SDS011;23776;51.592;7.180;2023-04-06T00:33:20;26.73;;;12.13;;
37955;SDS011;23776;51.592;7.180;2023-04-06T00:35:46;31.92;;;12.95;;
37955;SDS011;23776;51.592;7.180;2023-04-06T00:38:12;26.58;;;12.80;;
37955;SDS011;23776;51.592;7.180;2023-04-06T00:40:38;30.10;;;13.07;;
37955;SDS011;23776;51.592;7.180;2023-04-06T00:43:05;34.42;;;14.55;;
37955;SDS011;23776;51.592;7.180;2023-04-06T00:45:31;32.15;;;15.25;;
37955;SDS011;23776;51.592;7.180;2023-04-06T00:47:57;33.17;;;14.10;;
37955;SDS011;23776;51.592;7.180;2023-04-06T00:50:23;34.50;;;14.77;;
37955;SDS011;23776;51.592;7.180;2023-04-06T00:52:49;32.97;;;14.60;;
37955;SDS011;23776;51.592;7.180;2023-04-06T00:55:15;34.25;;;15.27;;
37955;SDS011;23776;51.592;7.180;2023-04-06T00:57:41;33.65;;;14.57;;
37955;SDS011;23776;51.592;7.180;2023-04-06T01:00:07;31.63;;;14.20;;
37955;SDS011;23776;51.592;7.180;2023-04-06T01:02:33;34.83;;;14.52;;
37955;SDS011;23776;51.592;7.180;2023-04-06T01:04:59;32.80;;;15.40;;
37955;SDS011;23776;51.592;7.180;2023-04-06T01:07:25;39.20;;;15.23;;
37955;SDS011;23776;51.592;7.180;2023-04-06T01:09:52;36.55;;;15.52;;
37955;SDS011;23776;51.592;7.180;2023-04-06T01:12:18;31.38;;;14.80;;
37955;SDS011;23776;51.592;7.180;2023-04-06T01:14:44;37.65;;;14.70;;
37955;SDS011;23776;51.592;7.180;2023-04-06T01:17:10;30.75;;;14.90;;
37955;SDS011;23776;51.592;7.180;2023-04-06T01:19:36;34.53;;;13.35;;
37955;SDS011;23776;51.592;7.180;2023-04-06T01:22:02;33.17;;;15.00;;
37955;SDS011;23776;51.592;7.180;2023-04-06T01:24:28;31.92;;;14.07;;
37955;SDS011;23776;51.592;7.180;2023-04-06T01:26:54;35.10;;;14.93;;
37955;SDS011;23776;51.592;7.180;2023-04-06T01:29:21;30.55;;;13.70;;
37955;SDS011;23776;51.592;7.180;2023-04-06T01:31:47;29.60;;;13.88;;
37955;SDS011;23776;51.592;7.180;2023-04-06T01:34:13;40.50;;;14.93;;
37955;SDS011;23776;51.592;7.180;2023-04-06T01:36:39;31.10;;;13.13;;
37955;SDS011;23776;51.592;7.180;2023-04-06T01:39:05;29.35;;;13.48;;
37955;SDS011;23776;51.592;7.180;2023-04-06T01:41:32;35.95;;;14.98;;
37955;SDS011;23776;51.592;7.180;2023-04-06T01:43:58;31.00;;;14.32;;
37955;SDS011;23776;51.592;7.180;2023-04-06T01:46:25;31.50;;;14.80;;
37955;SDS011;23776;51.592;7.180;2023-04-06T01:48:51;31.98;;;13.57;;
37955;SDS011;23776;51.592;7.180;2023-04-06T01:51:16;35.97;;;15.65;;
37955;SDS011;23776;51.592;7.180;2023-04-06T01:53:42;34.25;;;15.52;;
37955;SDS011;23776;51.592;7.180;2023-04-06T01:56:08;32.38;;;15.20;;
37955;SDS011;23776;51.592;7.180;2023-04-06T01:58:35;29.67;;;13.68;;
37955;SDS011;23776;51.592;7.180;2023-04-06T02:01:00;35.67;;;14.63;;
37955;SDS011;23776;51.592;7.180;2023-04-06T02:03:26;33.53;;;14.38;;
37955;SDS011;23776;51.592;7.180;2023-04-06T02:05:52;35.67;;;14.77;;
37955;SDS011;23776;51.592;7.180;2023-04-06T02:08:18;30.75;;;14.68;;
37955;SDS011;23776;51.592;7.180;2023-04-06T02:10:44;35.50;;;14.98;;
37955;SDS011;23776;51.592;7.180;2023-04-06T02:13:09;35.08;;;14.20;;
37955;SDS011;23776;51.592;7.180;2023-04-06T02:15:35;38.58;;;15.55;;
37955;SDS011;23776;51.592;7.180;2023-04-06T02:18:01;34.60;;;15.60;;
37955;SDS011;23776;51.592;7.180;2023-04-06T02:20:27;32.58;;;13.88;;
37955;SDS011;23776;51.592;7.180;2023-04-06T02:22:53;35.72;;;14.63;;
37955;SDS011;23776;51.592;7.180;2023-04-06T02:25:19;34.42;;;15.57;;
37955;SDS011;23776;51.592;7.180;2023-04-06T02:27:45;32.72;;;15.18;;
37955;SDS011;23776;51.592;7.180;2023-04-06T02:30:10;36.78;;;15.98;;
37955;SDS011;23776;51.592;7.180;2023-04-06T02:32:37;35.03;;;14.93;;
37955;SDS011;23776;51.592;7.180;2023-04-06T02:35:03;31.33;;;14.40;;
37955;SDS011;23776;51.592;7.180;2023-04-06T02:37:29;32.30;;;14.45;;
37955;SDS011;23776;51.592;7.180;2023-04-06T02:39:54;28.17;;;13.50;;
37955;SDS011;23776;51.592;7.180;2023-04-06T02:42:20;32.92;;;15.45;;
37955;SDS011;23776;51.592;7.180;2023-04-06T02:44:46;34.60;;;14.88;;
37955;SDS011;23776;51.592;7.180;2023-04-06T02:47:12;39.25;;;15.63;;
37955;SDS011;23776;51.592;7.180;2023-04-06T02:49:38;37.40;;;15.05;;
37955;SDS011;23776;51.592;7.180;2023-04-06T02:52:04;33.65;;;15.57;;
37955;SDS011;23776;51.592;7.180;2023-04-06T02:54:30;32.55;;;15.43;;
37955;SDS011;23776;51.592;7.180;2023-04-06T02:56:56;36.17;;;16.52;;
37955;SDS011;23776;51.592;7.180;2023-04-06T02:59:22;40.65;;;17.08;;
37955;SDS011;23776;51.592;7.180;2023-04-06T03:01:47;40.10;;;16.20;;
37955;SDS011;23776;51.592;7.180;2023-04-06T03:04:13;41.88;;;17.05;;
37955;SDS011;23776;51.592;7.180;2023-04-06T03:06:39;36.15;;;16.50;;
37955;SDS011;23776;51.592;7.180;2023-04-06T03:09:06;41.85;;;17.17;;
37955;SDS011;23776;51.592;7.180;2023-04-06T03:11:32;40.88;;;16.20;;
37955;SDS011;23776;51.592;7.180;2023-04-06T03:13:58;42.28;;;16.55;;
37955;SDS011;23776;51.592;7.180;2023-04-06T03:16:24;39.65;;;16.27;;
37955;SDS011;23776;51.592;7.180;2023-04-06T03:18:50;39.45;;;16.58;;
37955;SDS011;23776;51.592;7.180;2023-04-06T03:21:16;40.20;;;16.25;;
37955;SDS011;23776;51.592;7.180;2023-04-06T03:23:42;36.15;;;16.23;;
37955;SDS011;23776;51.592;7.180;2023-04-06T03:26:08;38.58;;;15.73;;
37955;SDS011;23776;51.592;7.180;2023-04-06T03:28:34;34.47;;;15.55;;
37955;SDS011;23776;51.592;7.180;2023-04-06T03:31:00;31.60;;;14.77;;
37955;SDS011;23776;51.592;7.180;2023-04-06T03:33:26;37.47;;;15.63;;
37955;SDS011;23776;51.592;7.180;2023-04-06T03:35:52;41.42;;;15.88;;
37955;SDS011;23776;51.592;7.180;2023-04-06T03:38:18;50.97;;;16.50;;
37955;SDS011;23776;51.592;7.180;2023-04-06T03:40:44;37.65;;;15.27;;
37955;SDS011;23776;51.592;7.180;2023-04-06T03:43:09;47.03;;;16.65;;
37955;SDS011;23776;51.592;7.180;2023-04-06T03:45:35;40.33;;;16.55;;
37955;SDS011;23776;51.592;7.180;2023-04-06T03:48:01;41.15;;;16.92;;
37955;SDS011;23776;51.592;7.180;2023-04-06T03:50:26;34.42;;;15.68;;
37955;SDS011;23776;51.592;7.180;2023-04-06T03:52:52;37.30;;;15.77;;
37955;SDS011;23776;51.592;7.180;2023-04-06T03:55:18;32.17;;;15.13;;
37955;SDS011;23776;51.592;7.180;2023-04-06T03:57:44;37.15;;;15.45;;
37955;SDS011;23776;51.592;7.180;2023-04-06T04:00:10;38.10;;;15.63;;
37955;SDS011;23776;51.592;7.180;2023-04-06T04:02:36;37.53;;;17.77;;
37955;SDS011;23776;51.592;7.180;2023-04-06T04:05:02;40.78;;;16.50;;
37955;SDS011;23776;51.592;7.180;2023-04-06T04:07:28;35.63;;;16.52;;
37955;SDS011;23776;51.592;7.180;2023-04-06T04:09:54;39.90;;;15.70;;
37955;SDS011;23776;51.592;7.180;2023-04-06T04:12:19;42.20;;;17.17;;
37955;SDS011;23776;51.592;7.180;2023-04-06T04:14:45;36.47;;;16.40;;
37955;SDS011;23776;51.592;7.180;2023-04-06T04:17:11;37.83;;;15.48;;
37955;SDS011;23776;51.592;7.180;2023-04-06T04:19:37;33.88;;;16.45;;
37955;SDS011;23776;51.592;7.180;2023-04-06T04:22:03;39.35;;;15.38;;
37955;SDS011;23776;51.592;7.180;2023-04-06T04:24:30;38.33;;;16.20;;
37955;SDS011;23776;51.592;7.180;2023-04-06T04:26:55;35.75;;;14.98;;
37955;SDS011;23776;51.592;7.180;2023-04-06T04:29:21;34.95;;;15.50;;
37955;SDS011;23776;51.592;7.180;2023-04-06T04:31:47;39.75;;;16.38;;
37955;SDS011;23776;51.592;7.180;2023-04-06T04:34:14;35.72;;;15.52;;
37955;SDS011;23776;51.592;7.180;2023-04-06T04:36:40;40.72;;;16.02;;
37955;SDS011;23776;51.592;7.180;2023-04-06T04:39:07;41.75;;;16.38;;
37955;SDS011;23776;51.592;7.180;2023-04-06T04:41:32;34.90;;;15.77;;
37955;SDS011;23776;51.592;7.180;2023-04-06T04:43:58;30.73;;;15.07;;
37955;SDS011;23776;51.592;7.180;2023-04-06T04:46:24;37.88;;;14.65;;
37955;SDS011;23776;51.592;7.180;2023-04-06T04:48:50;38.88;;;15.82;;
37955;SDS011;23776;51.592;7.180;2023-04-06T04:51:16;34.17;;;14.88;;
37955;SDS011;23776;51.592;7.180;2023-04-06T04:53:42;41.30;;;15.93;;
37955;SDS011;23776;51.592;7.180;2023-04-06T04:56:08;40.38;;;16.65;;
37955;SDS011;23776;51.592;7.180;2023-04-06T04:58:34;34.33;;;16.52;;
37955;SDS011;23776;51.592;7.180;2023-04-06T05:01:00;35.65;;;15.27;;
37955;SDS011;23776;51.592;7.180;2023-04-06T05:03:26;33.88;;;15.23;;
37955;SDS011;23776;51.592;7.180;2023-04-06T05:05:52;38.47;;;15.68;;
37955;SDS011;23776;51.592;7.180;2023-04-06T05:08:18;39.10;;;15.32;;
37955;SDS011;23776;51.592;7.180;2023-04-06T05:10:44;39.67;;;15.70;;
37955;SDS011;23776;51.592;7.180;2023-04-06T05:13:11;41.22;;;16.38;;
37955;SDS011;23776;51.592;7.180;2023-04-06T05:15:37;46.53;;;15.57;;
37955;SDS011;23776;51.592;7.180;2023-04-06T05:18:06;40.75;;;16.30;;
37955;SDS011;23776;51.592;7.180;2023-04-06T05:20:32;39.83;;;15.80;;
37955;SDS011;23776;51.592;7.180;2023-04-06T05:22:59;40.00;;;15.70;;
37955;SDS011;23776;51.592;7.180;2023-04-06T05:25:25;35.08;;;15.48;;
37955;SDS011;23776;51.592;7.180;2023-04-06T05:27:51;38.67;;;16.23;;
37955;SDS011;23776;51.592;7.180;2023-04-06T05:30:17;38.65;;;15.63;;
37955;SDS011;23776;51.592;7.180;2023-04-06T05:32:43;36.28;;;15.75;;
37955;SDS011;23776;51.592;7.180;2023-04-06T05:35:09;37.58;;;15.52;;
37955;SDS011;23776;51.592;7.180;2023-04-06T05:37:35;39.30;;;16.20;;
37955;SDS011;23776;51.592;7.180;2023-04-06T05:40:01;44.28;;;15.75;;
37955;SDS011;23776;51.592;7.180;2023-04-06T05:42:27;41.58;;;15.50;;
37955;SDS011;23776;51.592;7.180;2023-04-06T05:44:54;33.70;;;15.38;;
37955;SDS011;23776;51.592;7.180;2023-04-06T05:47:20;35.38;;;14.98;;
37955;SDS011;23776;51.592;7.180;2023-04-06T05:49:46;42.50;;;15.48;;
37955;SDS011;23776;51.592;7.180;2023-04-06T05:52:11;41.00;;;16.13;;
37955;SDS011;23776;51.592;7.180;2023-04-06T05:54:37;35.95;;;15.05;;
37955;SDS011;23776;51.592;7.180;2023-04-06T05:57:03;40.58;;;16.05;;
37955;SDS011;23776;51.592;7.180;2023-04-06T05:59:32;34.63;;;15.63;;
37955;SDS011;23776;51.592;7.180;2023-04-06T06:01:58;38.47;;;16.08;;
37955;SDS011;23776;51.592;7.180;2023-04-06T06:04:26;46.88;;;17.20;;
37955;SDS011;23776;51.592;7.180;2023-04-06T06:06:51;40.28;;;15.07;;
37955;SDS011;23776;51.592;7.180;2023-04-06T06:09:17;43.10;;;16.17;;
37955;SDS011;23776;51.592;7.180;2023-04-06T06:11:43;48.72;;;16.25;;
37955;SDS011;23776;51.592;7.180;2023-04-06T06:14:09;37.38;;;15.63;;
37955;SDS011;23776;51.592;7.180;2023-04-06T06:16:35;44.00;;;15.57;;
37955;SDS011;23776;51.592;7.180;2023-04-06T06:19:01;43.10;;;16.60;;
37955;SDS011;23776;51.592;7.180;2023-04-06T06:21:27;40.22;;;17.15;;
37955;SDS011;23776;51.592;7.180;2023-04-06T06:23:52;41.72;;;16.45;;
37955;SDS011;23776;51.592;7.180;2023-04-06T06:26:19;35.53;;;15.77;;
37955;SDS011;23776;51.592;7.180;2023-04-06T06:28:45;32.05;;;15.80;;
37955;SDS011;23776;51.592;7.180;2023-04-06T06:31:10;33.72;;;15.82;;
37955;SDS011;23776;51.592;7.180;2023-04-06T06:33:37;36.88;;;15.25;;
37955;SDS011;23776;51.592;7.180;2023-04-06T06:36:02;38.25;;;16.00;;
37955;SDS011;23776;51.592;7.180;2023-04-06T06:38:28;39.85;;;15.38;;
37955;SDS011;23776;51.592;7.180;2023-04-06T06:40:54;29.83;;;14.77;;
37955;SDS011;23776;51.592;7.180;2023-04-06T06:43:20;32.08;;;15.48;;
37955;SDS011;23776;51.592;7.180;2023-04-06T06:45:46;36.85;;;15.35;;
37955;SDS011;23776;51.592;7.180;2023-04-06T06:48:12;29.95;;;14.50;;
37955;SDS011;23776;51.592;7.180;2023-04-06T06:50:38;25.95;;;13.32;;
37955;SDS011;23776;51.592;7.180;2023-04-06T06:53:04;28.23;;;14.25;;
37955;SDS011;23776;51.592;7.180;2023-04-06T06:55:30;31.25;;;12.90;;
37955;SDS011;23776;51.592;7.180;2023-04-06T06:57:56;34.50;;;14.10;;
37955;SDS011;23776;51.592;7.180;2023-04-06T07:00:22;32.40;;;14.93;;
37955;SDS011;23776;51.592;7.180;2023-04-06T07:02:48;31.17;;;14.05;;
37955;SDS011;23776;51.592;7.180;2023-04-06T07:05:13;30.33;;;12.82;;
37955;SDS011;23776;51.592;7.180;2023-04-06T07:07:40;24.40;;;12.18;;
37955;SDS011;23776;51.592;7.180;2023-04-06T07:10:06;25.60;;;11.98;;
37955;SDS011;23776;51.592;7.180;2023-04-06T07:12:32;29.48;;;13.02;;
37955;SDS011;23776;51.592;7.180;2023-04-06T07:14:58;21.88;;;10.88;;
37955;SDS011;23776;51.592;7.180;2023-04-06T07:17:23;25.73;;;11.02;;
37955;SDS011;23776;51.592;7.180;2023-04-06T07:19:49;22.33;;;10.30;;
37955;SDS011;23776;51.592;7.180;2023-04-06T07:22:15;23.55;;;10.30;;
37955;SDS011;23776;51.592;7.180;2023-04-06T07:24:40;27.80;;;10.65;;
37955;SDS011;23776;51.592;7.180;2023-04-06T07:27:06;32.38;;;11.23;;
37955;SDS011;23776;51.592;7.180;2023-04-06T07:29:32;20.67;;;10.13;;
37955;SDS011;23776;51.592;7.180;2023-04-06T07:31:57;26.17;;;10.52;;
37955;SDS011;23776;51.592;7.180;2023-04-06T07:34:23;21.98;;;10.63;;
37955;SDS011;23776;51.592;7.180;2023-04-06T07:36:48;19.55;;;9.10;;
37955;SDS011;23776;51.592;7.180;2023-04-06T07:39:14;23.27;;;10.98;;
37955;SDS011;23776;51.592;7.180;2023-04-06T07:41:40;19.10;;;9.52;;
37955;SDS011;23776;51.592;7.180;2023-04-06T07:44:06;22.50;;;10.43;;
37955;SDS011;23776;51.592;7.180;2023-04-06T07:46:31;18.23;;;9.52;;
37955;SDS011;23776;51.592;7.180;2023-04-06T07:48:58;18.50;;;9.07;;
37955;SDS011;23776;51.592;7.180;2023-04-06T07:51:25;15.50;;;8.90;;
37955;SDS011;23776;51.592;7.180;2023-04-06T07:53:51;23.48;;;9.35;;
37955;SDS011;23776;51.592;7.180;2023-04-06T07:56:17;27.77;;;11.13;;
37955;SDS011;23776;51.592;7.180;2023-04-06T07:58:43;18.33;;;9.60;;
37955;SDS011;23776;51.592;7.180;2023-04-06T08:01:08;19.63;;;9.93;;
37955;SDS011;23776;51.592;7.180;2023-04-06T08:03:34;24.33;;;10.23;;
37955;SDS011;23776;51.592;7.180;2023-04-06T08:06:00;18.13;;;9.15;;
37955;SDS011;23776;51.592;7.180;2023-04-06T08:08:27;22.00;;;10.07;;
37955;SDS011;23776;51.592;7.180;2023-04-06T08:10:53;23.60;;;10.00;;
37955;SDS011;23776;51.592;7.180;2023-04-06T08:13:18;25.77;;;10.05;;
37955;SDS011;23776;51.592;7.180;2023-04-06T08:15:44;28.55;;;10.00;;
37955;SDS011;23776;51.592;7.180;2023-04-06T08:18:10;25.40;;;10.60;;
37955;SDS011;23776;51.592;7.180;2023-04-06T08:20:36;23.58;;;10.48;;
37955;SDS011;23776;51.592;7.180;2023-04-06T08:23:02;22.67;;;11.27;;
37955;SDS011;23776;51.592;7.180;2023-04-06T08:25:28;19.42;;;9.75;;
37955;SDS011;23776;51.592;7.180;2023-04-06T08:27:54;22.73;;;10.05;;
37955;SDS011;23776;51.592;7.180;2023-04-06T08:30:19;21.58;;;9.98;;
37955;SDS011;23776;51.592;7.180;2023-04-06T08:32:45;24.20;;;10.55;;
37955;SDS011;23776;51.592;7.180;2023-04-06T08:35:11;24.08;;;10.75;;
37955;SDS011;23776;51.592;7.180;2023-04-06T08:37:37;22.52;;;10.15;;
37955;SDS011;23776;51.592;7.180;2023-04-06T08:40:03;24.33;;;10.45;;
37955;SDS011;23776;51.592;7.180;2023-04-06T08:42:31;25.80;;;12.88;;
37955;SDS011;23776;51.592;7.180;2023-04-06T08:44:58;26.63;;;9.63;;
37955;SDS011;23776;51.592;7.180;2023-04-06T08:47:24;20.77;;;10.27;;
37955;SDS011;23776;51.592;7.180;2023-04-06T08:49:50;20.65;;;10.90;;
37955;SDS011;23776;51.592;7.180;2023-04-06T08:52:18;24.23;;;10.32;;
37955;SDS011;23776;51.592;7.180;2023-04-06T08:54:44;24.17;;;10.18;;
37955;SDS011;23776;51.592;7.180;2023-04-06T08:57:10;23.83;;;11.48;;
37955;SDS011;23776;51.592;7.180;2023-04-06T08:59:37;24.42;;;12.35;;
37955;SDS011;23776;51.592;7.180;2023-04-06T09:02:04;20.33;;;10.18;;
37955;SDS011;23776;51.592;7.180;2023-04-06T09:04:31;25.92;;;11.15;;
37955;SDS011;23776;51.592;7.180;2023-04-06T09:07:00;21.83;;;10.07;;
37955;SDS011;23776;51.592;7.180;2023-04-06T09:09:26;22.05;;;10.40;;
37955;SDS011;23776;51.592;7.180;2023-04-06T09:11:52;22.67;;;12.07;;
37955;SDS011;23776;51.592;7.180;2023-04-06T09:14:33;27.33;;;11.13;;
37955;SDS011;23776;51.592;7.180;2023-04-06T09:17:00;27.38;;;11.25;;
37955;SDS011;23776;51.592;7.180;2023-04-06T09:19:26;23.00;;;11.98;;
37955;SDS011;23776;51.592;7.180;2023-04-06T09:22:00;23.83;;;11.00;;
37955;SDS011;23776;51.592;7.180;2023-04-06T09:24:39;26.45;;;11.45;;
37955;SDS011;23776;51.592;7.180;2023-04-06T09:27:09;26.33;;;11.77;;
37955;SDS011;23776;51.592;7.180;2023-04-06T09:29:35;23.42;;;11.35;;
37955;SDS011;23776;51.592;7.180;2023-04-06T09:32:11;27.40;;;12.93;;
37955;SDS011;23776;51.592;7.180;2023-04-06T09:34:39;29.25;;;13.40;;
37955;SDS011;23776;51.592;7.180;2023-04-06T09:37:18;33.30;;;13.93;;
37955;SDS011;23776;51.592;7.180;2023-04-06T09:39:44;25.73;;;13.10;;
37955;SDS011;23776;51.592;7.180;2023-04-06T09:42:23;29.45;;;14.00;;
37955;SDS011;23776;51.592;7.180;2023-04-06T09:44:50;26.98;;;14.10;;
37955;SDS011;23776;51.592;7.180;2023-04-06T09:47:15;21.95;;;12.05;;
37955;SDS011;23776;51.592;7.180;2023-04-06T09:49:43;20.55;;;10.73;;
37955;SDS011;23776;51.592;7.180;2023-04-06T09:52:10;23.75;;;11.27;;
37955;SDS011;23776;51.592;7.180;2023-04-06T09:54:37;25.58;;;12.50;;
37955;SDS011;23776;51.592;7.180;2023-04-06T09:59:57;32.92;;;11.95;;
37955;SDS011;23776;51.592;7.180;2023-04-06T10:05:16;23.83;;;12.10;;
37955;SDS011;23776;51.592;7.180;2023-04-06T10:07:43;29.13;;;12.23;;
37955;SDS011;23776;51.592;7.180;2023-04-06T10:10:10;27.30;;;12.95;;
37955;SDS011;23776;51.592;7.180;2023-04-06T10:12:38;25.88;;;11.98;;
37955;SDS011;23776;51.592;7.180;2023-04-06T10:15:05;26.55;;;12.57;;
37955;SDS011;23776;51.592;7.180;2023-04-06T10:17:32;28.55;;;12.85;;
37955;SDS011;23776;51.592;7.180;2023-04-06T10:22:29;29.27;;;11.73;;
37955;SDS011;23776;51.592;7.180;2023-04-06T10:25:01;28.58;;;14.25;;
37955;SDS011;23776;51.592;7.180;2023-04-06T10:27:27;26.58;;;12.20;;
37955;SDS011;23776;51.592;7.180;2023-04-06T10:29:54;27.38;;;13.13;;
37955;SDS011;23776;51.592;7.180;2023-04-06T10:32:36;34.63;;;13.63;;
37955;SDS011;23776;51.592;7.180;2023-04-06T10:35:06;25.73;;;13.48;;
37955;SDS011;23776;51.592;7.180;2023-04-06T10:37:45;30.42;;;14.32;;
37955;SDS011;23776;51.592;7.180;2023-04-06T10:40:19;26.48;;;12.85;;
37955;SDS011;23776;51.592;7.180;2023-04-06T10:42:50;32.58;;;14.40;;
37955;SDS011;23776;51.592;7.180;2023-04-06T10:45:23;29.15;;;13.30;;
37955;SDS011;23776;51.592;7.180;2023-04-06T10:47:53;26.15;;;13.93;;
37955;SDS011;23776;51.592;7.180;2023-04-06T10:50:20;26.80;;;13.27;;
37955;SDS011;23776;51.592;7.180;2023-04-06T10:52:46;30.30;;;14.02;;
37955;SDS011;23776;51.592;7.180;2023-04-06T10:55:23;26.67;;;13.60;;
37955;SDS011;23776;51.592;7.180;2023-04-06T10:57:50;28.50;;;13.43;;
37955;SDS011;23776;51.592;7.180;2023-04-06T11:00:16;26.45;;;12.70;;
37955;SDS011;23776;51.592;7.180;2023-04-06T11:02:42;26.83;;;13.90;;
37955;SDS011;23776;51.592;7.180;2023-04-06T11:05:08;29.83;;;14.35;;
37955;SDS011;23776;51.592;7.180;2023-04-06T11:07:36;32.00;;;13.57;;
37955;SDS011;23776;51.592;7.180;2023-04-06T11:10:04;29.30;;;14.70;;
37955;SDS011;23776;51.592;7.180;2023-04-06T11:12:30;28.20;;;14.45;;
37955;SDS011;23776;51.592;7.180;2023-04-06T11:14:59;28.75;;;14.82;;
37955;SDS011;23776;51.592;7.180;2023-04-06T11:17:32;32.40;;;15.55;;
37955;SDS011;23776;51.592;7.180;2023-04-06T11:20:02;35.53;;;15.90;;
37955;SDS011;23776;51.592;7.180;2023-04-06T11:22:29;28.42;;;14.40;;
37955;SDS011;23776;51.592;7.180;2023-04-06T11:25:05;29.10;;;15.43;;
37955;SDS011;23776;51.592;7.180;2023-04-06T11:27:32;32.33;;;17.38;;
37955;SDS011;23776;51.592;7.180;2023-04-06T11:29:59;31.02;;;16.50;;
37955;SDS011;23776;51.592;7.180;2023-04-06T11:32:25;29.33;;;16.10;;
37955;SDS011;23776;51.592;7.180;2023-04-06T11:34:51;30.65;;;16.70;;
37955;SDS011;23776;51.592;7.180;2023-04-06T11:37:16;44.28;;;21.98;;
37955;SDS011;23776;51.592;7.180;2023-04-06T11:39:49;40.53;;;21.23;;
37955;SDS011;23776;51.592;7.180;2023-04-06T11:42:28;38.92;;;20.50;;
37955;SDS011;23776;51.592;7.180;2023-04-06T11:44:55;34.70;;;19.08;;
37955;SDS011;23776;51.592;7.180;2023-04-06T11:47:27;39.72;;;19.40;;
37955;SDS011;23776;51.592;7.180;2023-04-06T11:50:07;44.40;;;18.75;;
37955;SDS011;23776;51.592;7.180;2023-04-06T11:52:34;34.38;;;17.15;;
37955;SDS011;23776;51.592;7.180;2023-04-06T11:55:09;43.15;;;16.70;;
37955;SDS011;23776;51.592;7.180;2023-04-06T11:57:43;28.53;;;16.17;;
37955;SDS011;23776;51.592;7.180;2023-04-06T12:00:10;33.30;;;15.10;;
37955;SDS011;23776;51.592;7.180;2023-04-06T12:02:37;33.28;;;16.23;;
37955;SDS011;23776;51.592;7.180;2023-04-06T12:05:03;32.33;;;15.13;;
37955;SDS011;23776;51.592;7.180;2023-04-06T12:07:30;32.47;;;15.07;;
37955;SDS011;23776;51.592;7.180;2023-04-06T12:09:58;34.58;;;15.95;;
37955;SDS011;23776;51.592;7.180;2023-04-06T12:12:24;27.75;;;14.10;;
37955;SDS011;23776;51.592;7.180;2023-04-06T12:14:50;34.33;;;14.07;;
37955;SDS011;23776;51.592;7.180;2023-04-06T12:17:16;34.97;;;14.73;;
37955;SDS011;23776;51.592;7.180;2023-04-06T12:19:41;37.50;;;13.93;;
37955;SDS011;23776;51.592;7.180;2023-04-06T12:22:07;30.58;;;13.90;;
37955;SDS011;23776;51.592;7.180;2023-04-06T12:24:33;27.52;;;13.80;;
37955;SDS011;23776;51.592;7.180;2023-04-06T12:26:58;32.88;;;14.57;;
37955;SDS011;23776;51.592;7.180;2023-04-06T12:29:24;23.70;;;12.95;;
37955;SDS011;23776;51.592;7.180;2023-04-06T12:31:50;36.13;;;13.90;;
37955;SDS011;23776;51.592;7.180;2023-04-06T12:34:15;29.83;;;13.80;;
37955;SDS011;23776;51.592;7.180;2023-04-06T12:36:41;27.23;;;13.10;;
37955;SDS011;23776;51.592;7.180;2023-04-06T12:39:07;29.08;;;13.60;;
37955;SDS011;23776;51.592;7.180;2023-04-06T12:41:32;26.00;;;13.18;;
37955;SDS011;23776;51.592;7.180;2023-04-06T12:43:58;36.47;;;14.45;;
37955;SDS011;23776;51.592;7.180;2023-04-06T12:46:27;32.50;;;14.38;;
37955;SDS011;23776;51.592;7.180;2023-04-06T12:48:54;31.23;;;14.30;;
37955;SDS011;23776;51.592;7.180;2023-04-06T12:51:21;28.52;;;13.77;;
37955;SDS011;23776;51.592;7.180;2023-04-06T12:53:47;23.75;;;12.63;;
37955;SDS011;23776;51.592;7.180;2023-04-06T12:56:14;29.25;;;12.60;;
37955;SDS011;23776;51.592;7.180;2023-04-06T12:58:45;29.13;;;13.98;;
37955;SDS011;23776;51.592;7.180;2023-04-06T13:01:11;32.67;;;13.43;;
37955;SDS011;23776;51.592;7.180;2023-04-06T13:03:38;28.00;;;13.60;;
37955;SDS011;23776;51.592;7.180;2023-04-06T13:06:04;30.13;;;13.65;;
37955;SDS011;23776;51.592;7.180;2023-04-06T13:08:30;27.90;;;12.90;;
37955;SDS011;23776;51.592;7.180;2023-04-06T13:10:55;28.38;;;13.02;;
37955;SDS011;23776;51.592;7.180;2023-04-06T13:13:25;30.20;;;13.40;;
37955;SDS011;23776;51.592;7.180;2023-04-06T13:15:53;25.95;;;12.02;;
37955;SDS011;23776;51.592;7.180;2023-04-06T13:18:20;31.27;;;13.73;;
37955;SDS011;23776;51.592;7.180;2023-04-06T13:20:46;27.02;;;13.00;;
37955;SDS011;23776;51.592;7.180;2023-04-06T13:23:12;30.80;;;14.35;;
37955;SDS011;23776;51.592;7.180;2023-04-06T13:25:38;32.65;;;14.63;;
37955;SDS011;23776;51.592;7.180;2023-04-06T13:28:04;26.85;;;13.35;;
37955;SDS011;23776;51.592;7.180;2023-04-06T13:30:29;28.33;;;13.43;;
37955;SDS011;23776;51.592;7.180;2023-04-06T13:32:55;33.08;;;13.43;;
37955;SDS011;23776;51.592;7.180;2023-04-06T13:35:21;27.23;;;11.73;;
37955;SDS011;23776;51.592;7.180;2023-04-06T13:37:46;27.85;;;12.98;;
37955;SDS011;23776;51.592;7.180;2023-04-06T13:40:13;26.75;;;13.18;;
37955;SDS011;23776;51.592;7.180;2023-04-06T13:42:38;25.38;;;12.75;;
37955;SDS011;23776;51.592;7.180;2023-04-06T13:45:05;24.05;;;12.32;;
37955;SDS011;23776;51.592;7.180;2023-04-06T13:47:31;19.70;;;10.15;;
37955;SDS011;23776;51.592;7.180;2023-04-06T13:49:57;15.82;;;7.63;;
37955;SDS011;23776;51.592;7.180;2023-04-06T13:52:23;17.92;;;7.70;;
37955;SDS011;23776;51.592;7.180;2023-04-06T13:54:49;13.40;;;5.90;;
37955;SDS011;23776;51.592;7.180;2023-04-06T13:57:15;12.68;;;7.10;;
37955;SDS011;23776;51.592;7.180;2023-04-06T13:59:40;21.95;;;10.35;;
37955;SDS011;23776;51.592;7.180;2023-04-06T14:02:07;22.63;;;10.85;;
37955;SDS011;23776;51.592;7.180;2023-04-06T14:04:33;27.95;;;13.43;;
37955;SDS011;23776;51.592;7.180;2023-04-06T14:06:59;27.10;;;12.27;;
37955;SDS011;23776;51.592;7.180;2023-04-06T14:09:27;27.25;;;11.90;;
37955;SDS011;23776;51.592;7.180;2023-04-06T14:11:53;27.23;;;12.95;;
37955;SDS011;23776;51.592;7.180;2023-04-06T14:14:19;27.83;;;11.77;;
37955;SDS011;23776;51.592;7.180;2023-04-06T14:16:45;27.27;;;12.13;;
37955;SDS011;23776;51.592;7.180;2023-04-06T14:19:11;22.20;;;10.98;;
37955;SDS011;23776;51.592;7.180;2023-04-06T14:21:38;21.55;;;11.07;;
37955;SDS011;23776;51.592;7.180;2023-04-06T14:24:05;28.45;;;11.88;;
37955;SDS011;23776;51.592;7.180;2023-04-06T14:26:32;21.35;;;10.45;;